Terminal Aerodrome Forecast
Issued by NWS Missoula, MT

Home | Current Version | Previous Version | Text Only | Print | Product List | Glossary On
Versions: 1 2 3 4 5 6 7 8 9 10 11 12 13 14
000
FTUS45 KMSO 261123
TAFGPI
TAF
KGPI 261123Z 2612/2712 VRB03KT 6SM -SN BR OVC035
     FM261300 VRB03KT 4SM -SN BR BKN022 OVC030
     FM261500 VRB03KT P6SM VCSH BKN040=

USA.gov is the U.S. government's official web portal to all federal, state and local government web resources and services.